Pacific Beryl — 9V9809 — position and weather

sailwx.info

Track history (hours):
 
Tides and Currents Weather Stations Pressure Air Temp Water Temp Dewpoint Dewpoint Depression Visibility Wind Speed Wind Dir Waves Ship Positions

Pacific Beryl

Last reported at 2014-Jul-12 17:32 UTC. Time now 2014-Jul-29 16:50 UTC.
Position N 35°04' E 129°21'.
Warning: this ship's position is 16 days out of date.

Length 182 m; draft 7.5 m.

Type: Ship. MMSI: 566366000.

Date/timePositionNaut miles runAvg speedWind from/ knotsBaromVisibWave heightAir tempDewpointWater temp
2014-Jul-12 17:32N 35°04' E 129°21'  
2014-Jul-04 09:30N 34°56' E 139°31'1213.0
2014-Jul-04 08:33N 35°04' E 139°43'1212.1
2014-Jul-04 07:33N 35°16' E 139°46'10 9.8
2014-Jul-04 06:33N 35°24' E 139°40'1 1.1
2014-Jul-04 05:29N 35°25' E 139°39'0 0.0
2014-Jul-04 04:32N 35°25' E 139°39'0 0.0
2014-Jul-04 03:33N 35°25' E 139°39'0 0.0
2014-Jul-04 02:29N 35°25' E 139°39'0 0.0
2014-Jul-04 01:33N 35°25' E 139°39'0 0.0
2014-Jul-04 00:32N 35°25' E 139°39'0 0.0
2014-Jul-03 23:33N 35°25' E 139°39'0 0.0
2014-Jul-03 22:32N 35°25' E 139°39'0 0.0
2014-Jul-03 21:32N 35°25' E 139°39'0 0.0
2014-Jul-03 20:33N 35°25' E 139°39'0 0.0
2014-Jul-03 19:32N 35°25' E 139°39'0 0.0
2014-Jul-03 18:32N 35°25' E 139°39'0 0.0
2014-Jul-03 17:32N 35°25' E 139°39'0 0.0
2014-Jul-03 16:33N 35°25' E 139°39'0 0.0
2014-Jul-03 15:32N 35°25' E 139°39'0 0.0
2014-Jul-03 14:32N 35°25' E 139°39'0 0.0
2014-Jul-03 13:32N 35°25' E 139°39'0 0.0
2014-Jul-03 12:32N 35°25' E 139°39'0 0.0
2014-Jul-03 11:33N 35°25' E 139°39'0 0.0
2014-Jul-03 10:32N 35°25' E 139°39'0 0.0
2014-Jul-03 09:33N 35°25' E 139°39'0 0.0
2014-Jul-03 08:33N 35°25' E 139°39'0 0.0
2014-Jul-03 07:33N 35°25' E 139°39'0 0.0
2014-Jul-03 06:32N 35°25' E 139°39'0 0.0
2014-Jul-03 05:32N 35°25' E 139°39'0 0.0
2014-Jul-03 04:33N 35°25' E 139°39'0 0.0
2014-Jul-03 03:32N 35°25' E 139°39'0 0.0
2014-Jul-03 02:32N 35°25' E 139°39'0 0.0
2014-Jul-03 01:32N 35°25' E 139°39'0 0.0
2014-Jul-03 00:33N 35°25' E 139°39'0 0.1
2014-Jul-02 23:33N 35°25' E 139°39'3 3.1
2014-Jul-02 22:33N 35°25' E 139°42'0 0.1
2014-Jul-02 21:32N 35°25' E 139°42'0 0.1
2014-Jul-02 20:32N 35°25' E 139°42'0 0.2
2014-Jul-02 19:34N 35°25' E 139°42'8 8.2
2014-Jul-02 18:34N 35°17' E 139°45'1010.1
2014-Jul-02 17:33N 35°07' E 139°46'  
Track history (hours):
 
Tides and Currents Weather Stations Pressure Air Temp Water Temp Dewpoint Dewpoint Depression Visibility Wind Speed Wind Dir Waves Ship Positions

Pacific Beryl

Last reported at 2014-Jul-12 17:32 UTC. Time now 2014-Jul-29 16:50 UTC.
Position N 35°04' E 129°21'.
Warning: this ship's position is 16 days out of date.

Length 182 m; draft 7.5 m.

Type: Ship. MMSI: 566366000.

Date/timePositionNaut miles runAvg speedWind from/ knotsBaromVisibWave heightAir tempDewpointWater temp
2014-Jul-12 17:32N 35°04' E 129°21'  
2014-Jul-04 09:30N 34°56' E 139°31'1213.0
2014-Jul-04 08:33N 35°04' E 139°43'1212.1
2014-Jul-04 07:33N 35°16' E 139°46'10 9.8
2014-Jul-04 06:33N 35°24' E 139°40'1 1.1
2014-Jul-04 05:29N 35°25' E 139°39'0 0.0
2014-Jul-04 04:32N 35°25' E 139°39'0 0.0
2014-Jul-04 03:33N 35°25' E 139°39'0 0.0
2014-Jul-04 02:29N 35°25' E 139°39'0 0.0
2014-Jul-04 01:33N 35°25' E 139°39'0 0.0
2014-Jul-04 00:32N 35°25' E 139°39'0 0.0
2014-Jul-03 23:33N 35°25' E 139°39'0 0.0
2014-Jul-03 22:32N 35°25' E 139°39'0 0.0
2014-Jul-03 21:32N 35°25' E 139°39'0 0.0
2014-Jul-03 20:33N 35°25' E 139°39'0 0.0
2014-Jul-03 19:32N 35°25' E 139°39'0 0.0
2014-Jul-03 18:32N 35°25' E 139°39'0 0.0
2014-Jul-03 17:32N 35°25' E 139°39'0 0.0
2014-Jul-03 16:33N 35°25' E 139°39'0 0.0
2014-Jul-03 15:32N 35°25' E 139°39'0 0.0
2014-Jul-03 14:32N 35°25' E 139°39'0 0.0
2014-Jul-03 13:32N 35°25' E 139°39'0 0.0
2014-Jul-03 12:32N 35°25' E 139°39'0 0.0
2014-Jul-03 11:33N 35°25' E 139°39'0 0.0
2014-Jul-03 10:32N 35°25' E 139°39'0 0.0
2014-Jul-03 09:33N 35°25' E 139°39'0 0.0
2014-Jul-03 08:33N 35°25' E 139°39'0 0.0
2014-Jul-03 07:33N 35°25' E 139°39'0 0.0
2014-Jul-03 06:32N 35°25' E 139°39'0 0.0
2014-Jul-03 05:32N 35°25' E 139°39'0 0.0
2014-Jul-03 04:33N 35°25' E 139°39'0 0.0
2014-Jul-03 03:32N 35°25' E 139°39'0 0.0
2014-Jul-03 02:32N 35°25' E 139°39'0 0.0
2014-Jul-03 01:32N 35°25' E 139°39'0 0.0
2014-Jul-03 00:33N 35°25' E 139°39'0 0.1
2014-Jul-02 23:33N 35°25' E 139°39'3 3.1
2014-Jul-02 22:33N 35°25' E 139°42'0 0.1
2014-Jul-02 21:32N 35°25' E 139°42'0 0.1
2014-Jul-02 20:32N 35°25' E 139°42'0 0.2
2014-Jul-02 19:34N 35°25' E 139°42'8 8.2
2014-Jul-02 18:34N 35°17' E 139°45'1010.1
2014-Jul-02 17:33N 35°07' E 139°46'  

Dump ship's entire track history